createdAt,value
2022-08-08T00:00:56.241Z,1.04
2022-08-08T00:04:58.873Z,0.87
2022-08-08T00:10:05.252Z,0.69
2022-08-08T00:15:12.923Z,0.74
2022-08-08T00:20:17.511Z,0.75
2022-08-08T00:25:23.451Z,0.61
2022-08-08T00:30:29.703Z,1.10
2022-08-08T00:35:37.596Z,0.84
2022-08-08T00:41:09.555Z,0.80
2022-08-08T00:45:48.024Z,0.86
2022-08-08T00:50:53.661Z,0.73
2022-08-08T00:55:59.851Z,0.55
2022-08-08T01:01:05.811Z,0.67
2022-08-08T01:06:16.199Z,0.72
2022-08-08T01:11:21.661Z,0.65
2022-08-08T01:16:28.160Z,0.72
2022-08-08T01:21:35.028Z,0.81
2022-08-08T01:26:40.261Z,0.62
2022-08-08T01:32:06.573Z,0.51
2022-08-08T01:36:51.989Z,0.54
2022-08-08T01:41:58.367Z,0.55
2022-08-08T01:47:55.530Z,0.85
2022-08-08T01:52:42.366Z,0.56
2022-08-08T01:57:17.481Z,0.64
2022-08-08T02:02:34.141Z,0.66
2022-08-08T02:07:41.496Z,0.91
2022-08-08T02:12:34.819Z,0.77
2022-08-08T02:17:43.279Z,0.64
2022-08-08T02:22:55.005Z,0.86
2022-08-08T02:27:52.396Z,0.53
2022-08-08T02:32:58.337Z,0.64
2022-08-08T02:38:05.647Z,0.58
2022-08-08T02:44:35.575Z,0.57
2022-08-08T02:48:16.347Z,0.60
2022-08-08T02:53:22.305Z,0.57
2022-08-08T02:58:28.062Z,0.90
2022-08-08T03:05:01.202Z,0.76
2022-08-08T03:08:39.755Z,0.91
2022-08-08T03:15:59.617Z,0.73
2022-08-08T03:18:52.367Z,0.73
2022-08-08T03:24:02.048Z,1.99
2022-08-08T03:29:04.378Z,0.96
2022-08-08T03:34:14.284Z,0.86
2022-08-08T03:39:16.195Z,0.79
2022-08-08T03:44:25.486Z,1.30
2022-08-08T03:49:57.184Z,0.88
2022-08-08T03:54:51.546Z,0.81
2022-08-08T04:00:02.619Z,0.77
2022-08-08T04:04:46.143Z,0.91
2022-08-08T04:10:03.070Z,0.83
2022-08-08T04:14:58.280Z,0.77
2022-08-08T04:20:04.758Z,0.86
2022-08-08T04:25:15.519Z,0.67
2022-08-08T04:30:21.866Z,1.13
2022-08-08T04:35:27.129Z,0.90
2022-08-08T04:40:33.019Z,1.10
2022-08-08T04:45:38.763Z,0.88
2022-08-08T04:50:46.212Z,0.90
2022-08-08T04:55:55.906Z,1.85
2022-08-08T05:00:59.245Z,1.48
2022-08-08T05:06:13.620Z,0.98
2022-08-08T05:11:11.404Z,1.38
2022-08-08T05:16:55.525Z,1.03
2022-08-08T05:21:23.543Z,1.56
2022-08-08T05:26:29.824Z,0.88
2022-08-08T05:32:03.083Z,0.71
2022-08-08T05:36:41.574Z,0.66
2022-08-08T05:41:55.393Z,0.63
2022-08-08T05:46:53.628Z,0.79
2022-08-08T05:51:59.654Z,0.67
2022-08-08T05:57:05.956Z,0.93
2022-08-08T06:02:12.211Z,0.98
2022-08-08T06:07:18.447Z,1.22
2022-08-08T06:12:30.798Z,1.48
2022-08-08T06:17:32.217Z,1.52
2022-08-08T06:22:36.398Z,2.38
2022-08-08T06:27:47.889Z,1.74
2022-08-08T06:32:50.221Z,1.84
2022-08-08T06:37:56.011Z,1.92
2022-08-08T06:43:02.485Z,2.03
2022-08-08T06:48:10.132Z,2.79
2022-08-08T06:53:20.289Z,2.11
2022-08-08T06:58:20.505Z,3.23
2022-08-08T07:03:51.598Z,1.99
2022-08-08T07:08:33.426Z,3.04
2022-08-08T07:14:00.329Z,3.26
2022-08-08T07:18:46.035Z,2.16
2022-08-08T07:24:01.935Z,2.51
2022-08-08T07:28:57.271Z,2.38
2022-08-08T07:34:03.009Z,2.39
2022-08-08T07:39:10.780Z,3.16
2022-08-08T07:44:40.595Z,2.34
2022-08-08T07:49:20.901Z,2.37
2022-08-08T07:54:27.504Z,3.30
2022-08-08T07:59:37.813Z,2.57
2022-08-08T08:04:41.066Z,2.41
2022-08-08T08:09:44.949Z,3.37
2022-08-08T08:14:51.739Z,2.34
2022-08-08T08:19:58.057Z,2.98
2022-08-08T08:25:07.983Z,2.10
2022-08-08T08:30:10.426Z,2.31
2022-08-08T08:35:16.783Z,2.36
2022-08-08T08:40:22.668Z,2.36
2022-08-08T08:45:28.390Z,1.75
2022-08-08T08:50:35.421Z,1.88
2022-08-08T08:55:41.051Z,1.87
2022-08-08T09:01:05.258Z,1.86
2022-08-08T09:05:54.857Z,1.38
2022-08-08T09:10:59.142Z,1.20
2022-08-08T09:16:07.010Z,1.61
2022-08-08T09:21:57.060Z,1.82
2022-08-08T09:26:19.252Z,1.22
2022-08-08T09:31:25.082Z,1.38
2022-08-08T09:36:31.546Z,1.28
2022-08-08T09:42:14.438Z,1.64
2022-08-08T09:46:57.601Z,1.08
2022-08-08T09:52:06.719Z,1.45
2022-08-08T09:57:00.218Z,1.11
2022-08-08T10:02:14.456Z,1.05
2022-08-08T10:07:15.769Z,1.07
2022-08-08T10:12:28.319Z,1.26
2022-08-08T10:17:57.335Z,1.44
2022-08-08T10:22:36.189Z,0.86
2022-08-08T10:27:42.764Z,1.04
2022-08-08T10:32:53.712Z,1.02
2022-08-08T10:37:54.490Z,0.97
2022-08-08T10:42:56.835Z,1.07
2022-08-08T10:47:55.894Z,1.20
2022-08-08T10:53:07.757Z,1.10
2022-08-08T11:03:15.537Z,1.53
2022-08-08T11:08:37.345Z,1.08
2022-08-08T11:13:30.045Z,1.07
2022-08-08T11:18:47.039Z,0.97
2022-08-08T11:23:34.060Z,1.80
2022-08-08T11:28:40.503Z,1.02
2022-08-08T11:33:52.800Z,0.97
2022-08-08T11:38:55.758Z,0.97
2022-08-08T11:44:02.052Z,0.96
2022-08-08T11:49:09.365Z,1.18
2022-08-08T11:54:31.144Z,0.99
2022-08-08T11:59:57.949Z,0.86
2022-08-08T12:04:32.704Z,0.76
2022-08-08T12:10:08.766Z,0.84
2022-08-08T12:14:40.231Z,0.95
2022-08-08T12:19:51.767Z,0.82
2022-08-08T12:24:56.097Z,0.72
2022-08-08T12:29:59.256Z,0.76
2022-08-08T12:35:17.596Z,0.78
2022-08-08T12:40:11.877Z,0.97
2022-08-08T12:45:57.988Z,1.03
2022-08-08T12:50:25.839Z,0.73
2022-08-08T12:55:50.167Z,0.91
2022-08-08T13:00:39.219Z,1.00
2022-08-08T13:06:04.294Z,0.93
2022-08-08T13:10:56.692Z,0.70
2022-08-08T13:15:56.196Z,1.11
2022-08-08T13:21:03.158Z,0.86
2022-08-08T13:26:14.661Z,0.91
2022-08-08T13:31:50.804Z,0.87
2022-08-08T13:36:26.596Z,1.32
2022-08-08T13:41:39.464Z,1.28
2022-08-08T13:46:37.857Z,1.14
2022-08-08T13:51:50.693Z,1.00
2022-08-08T13:57:00.353Z,1.47
2022-08-08T14:01:59.440Z,1.41
2022-08-08T14:07:03.780Z,1.32
2022-08-08T14:12:10.225Z,1.58
2022-08-08T14:17:58.213Z,1.66
2022-08-08T14:22:23.048Z,1.68
2022-08-08T14:27:29.104Z,1.62
2022-08-08T14:32:59.745Z,1.55
2022-08-08T18:50:00.338Z,2.01
2022-08-08T18:55:00.494Z,1.78
2022-08-08T19:00:01.517Z,2.02
2022-08-08T19:05:07.755Z,2.08
2022-08-08T19:10:16.337Z,1.97
2022-08-08T19:15:21.635Z,1.96
2022-08-08T19:20:25.373Z,2.04
2022-08-08T19:26:01.772Z,2.25
2022-08-08T19:30:37.020Z,2.08
2022-08-08T19:35:45.065Z,1.82
2022-08-08T19:40:49.883Z,1.91
2022-08-08T19:45:58.506Z,1.80
2022-08-08T19:51:01.862Z,1.92
2022-08-08T19:56:16.450Z,2.02
2022-08-08T20:01:17.272Z,1.82
2022-08-08T20:06:16.987Z,1.80
2022-08-08T20:11:23.327Z,1.66
2022-08-08T20:16:30.664Z,2.06
2022-08-08T20:21:39.750Z,2.21
2022-08-08T20:26:47.204Z,2.01
2022-08-08T20:32:07.216Z,1.72
2022-08-08T20:36:57.063Z,2.12
2022-08-08T20:42:03.343Z,2.00
2022-08-08T20:47:15.860Z,1.67
2022-08-08T20:52:15.518Z,1.85
2022-08-08T20:57:21.246Z,1.96
2022-08-08T21:02:26.791Z,1.79
2022-08-08T21:08:33.824Z,2.28
2022-08-08T21:12:39.089Z,2.63
2022-08-08T21:17:45.151Z,2.20
2022-08-08T21:22:51.878Z,1.91
2022-08-08T21:28:09.666Z,1.86
2022-08-08T21:33:08.061Z,1.85
2022-08-08T21:38:16.300Z,2.32
2022-08-08T21:43:18.189Z,1.94
2022-08-08T21:48:30.299Z,2.63
2022-08-08T21:54:23.304Z,2.29
2022-08-08T21:58:37.546Z,2.74
2022-08-08T22:03:41.859Z,2.00
2022-08-08T22:08:47.641Z,2.78
2022-08-08T22:13:53.449Z,1.74
2022-08-08T22:19:09.103Z,1.95
2022-08-08T22:24:08.289Z,2.45
2022-08-08T22:30:01.047Z,1.78
2022-08-08T22:34:20.471Z,2.19
2022-08-08T22:39:39.374Z,2.77
2022-08-08T22:44:32.510Z,3.88
2022-08-08T22:49:40.550Z,3.93
2022-08-08T22:54:55.864Z,2.62
2022-08-08T22:59:59.327Z,2.85
2022-08-08T23:04:55.987Z,2.78
2022-08-08T23:10:02.165Z,2.44
2022-08-08T23:15:11.172Z,2.13
2022-08-08T23:20:15.246Z,2.26
2022-08-08T23:25:21.299Z,2.02
2022-08-08T23:30:27.084Z,3.36
2022-08-08T23:35:34.408Z,2.23
2022-08-08T23:40:39.196Z,2.15
2022-08-08T23:49:07.543Z,2.12
2022-08-08T23:50:52.215Z,3.56
2022-08-08T23:55:57.086Z,3.31
